sensor_id;sensor_type;location;lat;lon;timestamp;temperature;humidity
33645;DHT22;19986;48.190;16.366;2023-02-28T05:05:14;3.70;99.90
33645;DHT22;19986;48.190;16.366;2023-02-28T05:07:44;3.60;99.90
33645;DHT22;19986;48.190;16.366;2023-02-28T05:10:11;3.60;99.90
33645;DHT22;19986;48.190;16.366;2023-02-28T05:12:37;3.70;99.90
33645;DHT22;19986;48.190;16.366;2023-02-28T05:15:05;3.70;99.90
33645;DHT22;19986;48.190;16.366;2023-02-28T05:17:31;3.70;99.90
33645;DHT22;19986;48.190;16.366;2023-02-28T05:19:57;3.70;99.90
33645;DHT22;19986;48.190;16.366;2023-02-28T05:22:23;3.70;99.90
33645;DHT22;19986;48.190;16.366;2023-02-28T05:24:48;3.60;99.90
33645;DHT22;19986;48.190;16.366;2023-02-28T05:27:14;3.50;99.90
33645;DHT22;19986;48.190;16.366;2023-02-28T05:29:40;3.50;99.90
33645;DHT22;19986;48.190;16.366;2023-02-28T05:32:11;3.50;99.90
33645;DHT22;19986;48.190;16.366;2023-02-28T05:34:38;3.60;99.90
33645;DHT22;19986;48.190;16.366;2023-02-28T05:37:05;3.60;99.90
33645;DHT22;19986;48.190;16.366;2023-02-28T05:39:31;3.60;99.90
33645;DHT22;19986;48.190;16.366;2023-02-28T05:41:57;3.70;99.90
33645;DHT22;19986;48.190;16.366;2023-02-28T05:44:23;3.70;99.90
33645;DHT22;19986;48.190;16.366;2023-02-28T05:46:48;3.60;99.90
33645;DHT22;19986;48.190;16.366;2023-02-28T05:49:14;3.60;99.90
33645;DHT22;19986;48.190;16.366;2023-02-28T05:51:40;3.60;99.90
33645;DHT22;19986;48.190;16.366;2023-02-28T05:54:06;3.60;99.90
33645;DHT22;19986;48.190;16.366;2023-02-28T05:56:32;3.60;99.90
33645;DHT22;19986;48.190;16.366;2023-02-28T05:59:00;3.60;99.90
33645;DHT22;19986;48.190;16.366;2023-02-28T06:01:42;3.60;99.90
33645;DHT22;19986;48.190;16.366;2023-02-28T06:04:17;3.70;99.90
33645;DHT22;19986;48.190;16.366;2023-02-28T06:06:45;3.70;99.90
33645;DHT22;19986;48.190;16.366;2023-02-28T06:09:12;3.70;99.90
33645;DHT22;19986;48.190;16.366;2023-02-28T06:11:37;3.70;99.90
33645;DHT22;19986;48.190;16.366;2023-02-28T06:14:04;3.70;99.90
33645;DHT22;19986;48.190;16.366;2023-02-28T06:16:32;3.70;99.90
33645;DHT22;19986;48.190;16.366;2023-02-28T06:18:59;3.80;99.90
33645;DHT22;19986;48.190;16.366;2023-02-28T06:21:26;3.80;99.90
33645;DHT22;19986;48.190;16.366;2023-02-28T06:23:53;3.80;99.90
33645;DHT22;19986;48.190;16.366;2023-02-28T06:26:20;3.80;99.90
33645;DHT22;19986;48.190;16.366;2023-02-28T06:28:46;3.90;99.90
33645;DHT22;19986;48.190;16.366;2023-02-28T06:31:15;4.00;99.90
33645;DHT22;19986;48.190;16.366;2023-02-28T06:33:41;4.10;99.90
33645;DHT22;19986;48.190;16.366;2023-02-28T06:36:09;4.10;99.90
33645;DHT22;19986;48.190;16.366;2023-02-28T06:38:36;4.10;99.90
33645;DHT22;19986;48.190;16.366;2023-02-28T06:41:03;4.10;99.90
33645;DHT22;19986;48.190;16.366;2023-02-28T06:43:32;4.10;99.90
33645;DHT22;19986;48.190;16.366;2023-02-28T06:45:59;4.10;99.90
33645;DHT22;19986;48.190;16.366;2023-02-28T06:48:26;4.20;99.90
33645;DHT22;19986;48.190;16.366;2023-02-28T06:51:11;4.20;99.90
33645;DHT22;19986;48.190;16.366;2023-02-28T06:53:37;4.30;99.90
33645;DHT22;19986;48.190;16.366;2023-02-28T06:56:09;4.40;99.90
33645;DHT22;19986;48.190;16.366;2023-02-28T06:58:36;4.50;99.90
33645;DHT22;19986;48.190;16.366;2023-02-28T07:01:03;4.50;99.90
33645;DHT22;19986;48.190;16.366;2023-02-28T07:03:29;4.60;99.90
33645;DHT22;19986;48.190;16.366;2023-02-28T07:05:55;4.60;99.90
33645;DHT22;19986;48.190;16.366;2023-02-28T07:08:25;4.70;99.90
33645;DHT22;19986;48.190;16.366;2023-02-28T07:10:54;4.70;99.90
33645;DHT22;19986;48.190;16.366;2023-02-28T07:13:23;4.70;99.90
33645;DHT22;19986;48.190;16.366;2023-02-28T07:15:58;4.80;99.90
33645;DHT22;19986;48.190;16.366;2023-02-28T07:18:24;4.80;99.90
33645;DHT22;19986;48.190;16.366;2023-02-28T07:20:50;4.80;99.90
33645;DHT22;19986;48.190;16.366;2023-02-28T07:23:16;4.80;99.90
33645;DHT22;19986;48.190;16.366;2023-02-28T07:25:42;4.90;99.90
33645;DHT22;19986;48.190;16.366;2023-02-28T07:28:09;4.90;99.90
33645;DHT22;19986;48.190;16.366;2023-02-28T07:30:35;4.90;99.90
33645;DHT22;19986;48.190;16.366;2023-02-28T07:33:00;5.10;99.90
33645;DHT22;19986;48.190;16.366;2023-02-28T07:35:26;5.20;99.90
33645;DHT22;19986;48.190;16.366;2023-02-28T07:37:52;5.30;99.90
33645;DHT22;19986;48.190;16.366;2023-02-28T07:40:18;5.40;99.90
33645;DHT22;19986;48.190;16.366;2023-02-28T07:42:44;5.50;99.90
33645;DHT22;19986;48.190;16.366;2023-02-28T07:45:10;5.60;99.90
33645;DHT22;19986;48.190;16.366;2023-02-28T07:47:41;5.50;99.90
33645;DHT22;19986;48.190;16.366;2023-02-28T07:50:09;5.50;99.90
33645;DHT22;19986;48.190;16.366;2023-02-28T07:52:39;5.50;99.90
33645;DHT22;19986;48.190;16.366;2023-02-28T07:55:07;5.50;99.90
33645;DHT22;19986;48.190;16.366;2023-02-28T07:57:33;5.50;99.90
33645;DHT22;19986;48.190;16.366;2023-02-28T07:59:59;5.50;99.90
33645;DHT22;19986;48.190;16.366;2023-02-28T08:02:25;5.50;99.90
33645;DHT22;19986;48.190;16.366;2023-02-28T08:04:51;5.70;99.90
33645;DHT22;19986;48.190;16.366;2023-02-28T08:07:18;5.80;99.90
33645;DHT22;19986;48.190;16.366;2023-02-28T08:09:44;5.90;99.90
33645;DHT22;19986;48.190;16.366;2023-02-28T08:12:11;6.20;99.90
33645;DHT22;19986;48.190;16.366;2023-02-28T08:14:37;6.30;99.90
33645;DHT22;19986;48.190;16.366;2023-02-28T08:17:04;6.30;99.90
33645;DHT22;19986;48.190;16.366;2023-02-28T08:19:30;6.40;99.90
33645;DHT22;19986;48.190;16.366;2023-02-28T08:21:57;6.50;99.90
33645;DHT22;19986;48.190;16.366;2023-02-28T08:24:23;6.40;99.90
33645;DHT22;19986;48.190;16.366;2023-02-28T08:26:49;6.40;99.90
33645;DHT22;19986;48.190;16.366;2023-02-28T08:29:15;6.30;99.90
33645;DHT22;19986;48.190;16.366;2023-02-28T08:31:41;6.20;99.90
33645;DHT22;19986;48.190;16.366;2023-02-28T08:34:11;6.20;99.90
33645;DHT22;19986;48.190;16.366;2023-02-28T08:36:37;6.40;99.90
33645;DHT22;19986;48.190;16.366;2023-02-28T08:39:03;6.50;99.90
33645;DHT22;19986;48.190;16.366;2023-02-28T08:41:30;6.50;99.90
33645;DHT22;19986;48.190;16.366;2023-02-28T08:43:56;6.50;99.90
33645;DHT22;19986;48.190;16.366;2023-02-28T08:46:24;6.50;99.90
33645;DHT22;19986;48.190;16.366;2023-02-28T08:48:54;6.60;99.90
33645;DHT22;19986;48.190;16.366;2023-02-28T08:51:21;6.70;99.90
33645;DHT22;19986;48.190;16.366;2023-02-28T08:53:54;6.80;99.90
33645;DHT22;19986;48.190;16.366;2023-02-28T08:56:20;6.80;99.90
33645;DHT22;19986;48.190;16.366;2023-02-28T08:58:48;6.90;99.90
33645;DHT22;19986;48.190;16.366;2023-02-28T09:01:22;6.90;99.90
33645;DHT22;19986;48.190;16.366;2023-02-28T09:03:49;6.80;99.90
33645;DHT22;19986;48.190;16.366;2023-02-28T09:06:16;6.80;99.90
33645;DHT22;19986;48.190;16.366;2023-02-28T09:08:43;6.80;99.90
33645;DHT22;19986;48.190;16.366;2023-02-28T09:11:10;7.00;99.90
33645;DHT22;19986;48.190;16.366;2023-02-28T09:13:37;7.00;99.90
33645;DHT22;19986;48.190;16.366;2023-02-28T09:16:06;7.10;99.90
33645;DHT22;19986;48.190;16.366;2023-02-28T09:18:35;7.20;99.90
33645;DHT22;19986;48.190;16.366;2023-02-28T09:21:04;7.30;99.90
33645;DHT22;19986;48.190;16.366;2023-02-28T09:23:31;7.50;99.90
33645;DHT22;19986;48.190;16.366;2023-02-28T09:25:56;7.50;99.90
33645;DHT22;19986;48.190;16.366;2023-02-28T09:28:22;7.40;99.90
33645;DHT22;19986;48.190;16.366;2023-02-28T09:30:51;7.30;99.90
33645;DHT22;19986;48.190;16.366;2023-02-28T09:33:19;7.30;99.90
33645;DHT22;19986;48.190;16.366;2023-02-28T09:35:49;7.40;99.90
33645;DHT22;19986;48.190;16.366;2023-02-28T09:38:15;7.40;99.90
33645;DHT22;19986;48.190;16.366;2023-02-28T09:40:49;7.40;99.90
33645;DHT22;19986;48.190;16.366;2023-02-28T09:43:17;7.40;99.90
33645;DHT22;19986;48.190;16.366;2023-02-28T09:45:55;7.40;99.90
33645;DHT22;19986;48.190;16.366;2023-02-28T09:48:29;7.50;99.90
33645;DHT22;19986;48.190;16.366;2023-02-28T09:54:02;7.40;99.90
33645;DHT22;19986;48.190;16.366;2023-02-28T09:56:39;7.30;99.90
33645;DHT22;19986;48.190;16.366;2023-02-28T09:59:19;7.20;99.90
33645;DHT22;19986;48.190;16.366;2023-02-28T10:04:53;7.10;99.90
33645;DHT22;19986;48.190;16.366;2023-02-28T10:16:17;7.60;99.90
33645;DHT22;19986;48.190;16.366;2023-02-28T10:18:51;7.90;99.90
33645;DHT22;19986;48.190;16.366;2023-02-28T10:21:23;8.20;99.90
33645;DHT22;19986;48.190;16.366;2023-02-28T10:23:55;8.40;99.90
33645;DHT22;19986;48.190;16.366;2023-02-28T10:26:22;8.40;99.90
33645;DHT22;19986;48.190;16.366;2023-02-28T10:28:53;8.60;99.90
33645;DHT22;19986;48.190;16.366;2023-02-28T10:31:19;8.80;99.90
33645;DHT22;19986;48.190;16.366;2023-02-28T10:33:45;8.80;99.90
33645;DHT22;19986;48.190;16.366;2023-02-28T10:36:20;8.70;99.90
33645;DHT22;19986;48.190;16.366;2023-02-28T10:38:47;8.80;99.90
33645;DHT22;19986;48.190;16.366;2023-02-28T10:41:26;8.60;99.90
33645;DHT22;19986;48.190;16.366;2023-02-28T10:44:15;8.70;99.90
33645;DHT22;19986;48.190;16.366;2023-02-28T10:46:43;8.80;99.90
33645;DHT22;19986;48.190;16.366;2023-02-28T10:49:21;8.70;99.90
33645;DHT22;19986;48.190;16.366;2023-02-28T10:51:52;8.50;99.90
33645;DHT22;19986;48.190;16.366;2023-02-28T10:54:34;8.40;99.90
33645;DHT22;19986;48.190;16.366;2023-02-28T10:57:21;8.40;99.90
33645;DHT22;19986;48.190;16.366;2023-02-28T11:00:16;8.30;99.90
33645;DHT22;19986;48.190;16.366;2023-02-28T11:02:42;8.40;99.90
33645;DHT22;19986;48.190;16.366;2023-02-28T11:05:35;8.50;99.90
33645;DHT22;19986;48.190;16.366;2023-02-28T11:08:23;8.60;99.90
33645;DHT22;19986;48.190;16.366;2023-02-28T11:10:58;8.70;99.90
33645;DHT22;19986;48.190;16.366;2023-02-28T11:13:33;8.70;99.90
33645;DHT22;19986;48.190;16.366;2023-02-28T11:16:03;8.70;99.90
33645;DHT22;19986;48.190;16.366;2023-02-28T11:21:09;8.90;99.90
33645;DHT22;19986;48.190;16.366;2023-02-28T11:23:37;9.10;99.90
33645;DHT22;19986;48.190;16.366;2023-02-28T11:26:06;9.10;99.90
33645;DHT22;19986;48.190;16.366;2023-02-28T11:28:40;9.30;99.90
33645;DHT22;19986;48.190;16.366;2023-02-28T11:33:48;9.30;99.70
33645;DHT22;19986;48.190;16.366;2023-02-28T11:36:29;9.40;99.80
33645;DHT22;19986;48.190;16.366;2023-02-28T11:38:59;9.40;99.40
33645;DHT22;19986;48.190;16.366;2023-02-28T11:44:43;9.40;99.00
33645;DHT22;19986;48.190;16.366;2023-02-28T11:47:33;9.40;98.90
33645;DHT22;19986;48.190;16.366;2023-02-28T11:52:53;9.40;98.10
33645;DHT22;19986;48.190;16.366;2023-02-28T11:55:26;9.10;98.10
33645;DHT22;19986;48.190;16.366;2023-02-28T11:58:33;8.80;98.50
33645;DHT22;19986;48.190;16.366;2023-02-28T12:09:49;8.60;99.00
33645;DHT22;19986;48.190;16.366;2023-02-28T12:12:35;8.60;98.60
33645;DHT22;19986;48.190;16.366;2023-02-28T12:18:21;8.60;98.50
33645;DHT22;19986;48.190;16.366;2023-02-28T12:20:34;8.70;98.40
33645;DHT22;19986;48.190;16.366;2023-02-28T12:26:14;8.50;98.50
33645;DHT22;19986;48.190;16.366;2023-02-28T12:28:45;8.50;98.80
33645;DHT22;19986;48.190;16.366;2023-02-28T12:31:24;8.60;98.70
33645;DHT22;19986;48.190;16.366;2023-02-28T12:33:55;8.70;98.70
33645;DHT22;19986;48.190;16.366;2023-02-28T12:36:22;8.70;98.80
33645;DHT22;19986;48.190;16.366;2023-02-28T12:38:54;8.70;98.90
33645;DHT22;19986;48.190;16.366;2023-02-28T12:41:47;8.80;99.00
33645;DHT22;19986;48.190;16.366;2023-02-28T12:47:03;8.90;98.00
33645;DHT22;19986;48.190;16.366;2023-02-28T12:49:59;8.80;98.00
33645;DHT22;19986;48.190;16.366;2023-02-28T12:55:07;8.60;98.20
33645;DHT22;19986;48.190;16.366;2023-02-28T13:00:35;8.70;98.20
33645;DHT22;19986;48.190;16.366;2023-02-28T13:05:54;8.60;97.60
33645;DHT22;19986;48.190;16.366;2023-02-28T13:11:25;8.50;97.70
33645;DHT22;19986;48.190;16.366;2023-02-28T13:14:06;8.60;97.90
33645;DHT22;19986;48.190;16.366;2023-02-28T13:19:38;8.80;97.70
33645;DHT22;19986;48.190;16.366;2023-02-28T13:22:05;8.90;97.80
33645;DHT22;19986;48.190;16.366;2023-02-28T13:24:49;9.10;97.60
33645;DHT22;19986;48.190;16.366;2023-02-28T13:29:44;9.20;97.10
33645;DHT22;19986;48.190;16.366;2023-02-28T13:35:34;8.90;96.90
33645;DHT22;19986;48.190;16.366;2023-02-28T13:40:07;8.90;97.00
33645;DHT22;19986;48.190;16.366;2023-02-28T13:47:51;8.80;96.80
33645;DHT22;19986;48.190;16.366;2023-02-28T13:55:48;8.80;96.80
33645;DHT22;19986;48.190;16.366;2023-02-28T13:58:32;8.90;96.60
33645;DHT22;19986;48.190;16.366;2023-02-28T14:04:15;8.80;96.30
33645;DHT22;19986;48.190;16.366;2023-02-28T14:06:52;8.80;96.00
33645;DHT22;19986;48.190;16.366;2023-02-28T14:09:37;8.80;96.40
33645;DHT22;19986;48.190;16.366;2023-02-28T14:17:57;8.90;96.70
33645;DHT22;19986;48.190;16.366;2023-02-28T14:20:29;9.00;96.60
33645;DHT22;19986;48.190;16.366;2023-02-28T14:29:27;9.10;96.90
33645;DHT22;19986;48.190;16.366;2023-02-28T14:37:38;9.20;97.10
33645;DHT22;19986;48.190;16.366;2023-02-28T14:40:27;9.10;97.30
33645;DHT22;19986;48.190;16.366;2023-02-28T14:42:58;9.20;97.40
33645;DHT22;19986;48.190;16.366;2023-02-28T14:45:30;9.30;97.40
33645;DHT22;19986;48.190;16.366;2023-02-28T14:47:57;9.40;97.00
33645;DHT22;19986;48.190;16.366;2023-02-28T14:50:30;9.30;97.00
33645;DHT22;19986;48.190;16.366;2023-02-28T14:52:57;9.30;96.80
33645;DHT22;19986;48.190;16.366;2023-02-28T14:55:35;9.10;96.80
33645;DHT22;19986;48.190;16.366;2023-02-28T14:58:06;9.10;97.10
33645;DHT22;19986;48.190;16.366;2023-02-28T15:00:34;9.00;97.10
33645;DHT22;19986;48.190;16.366;2023-02-28T15:03:38;8.90;97.10
33645;DHT22;19986;48.190;16.366;2023-02-28T15:06:15;8.90;97.30
33645;DHT22;19986;48.190;16.366;2023-02-28T15:08:45;9.10;97.50
33645;DHT22;19986;48.190;16.366;2023-02-28T15:11:17;9.10;97.40
33645;DHT22;19986;48.190;16.366;2023-02-28T15:13:54;9.20;97.40
33645;DHT22;19986;48.190;16.366;2023-02-28T15:16:38;9.20;97.30
33645;DHT22;19986;48.190;16.366;2023-02-28T15:19:33;9.40;97.40
33645;DHT22;19986;48.190;16.366;2023-02-28T15:22:04;9.50;97.40
33645;DHT22;19986;48.190;16.366;2023-02-28T15:24:44;9.50;97.30
33645;DHT22;19986;48.190;16.366;2023-02-28T15:27:26;9.50;97.50
33645;DHT22;19986;48.190;16.366;2023-02-28T15:30:04;9.40;97.40
33645;DHT22;19986;48.190;16.366;2023-02-28T15:32:36;9.40;97.60
33645;DHT22;19986;48.190;16.366;2023-02-28T15:35:19;9.30;97.70
33645;DHT22;19986;48.190;16.366;2023-02-28T15:37:58;9.20;97.80
33645;DHT22;19986;48.190;16.366;2023-02-28T15:40:40;9.10;97.90
33645;DHT22;19986;48.190;16.366;2023-02-28T15:45:49;8.80;98.10
33645;DHT22;19986;48.190;16.366;2023-02-28T15:48:27;8.90;98.20
33645;DHT22;19986;48.190;16.366;2023-02-28T15:51:40;8.90;98.20
33645;DHT22;19986;48.190;16.366;2023-02-28T15:53:47;8.90;98.30
33645;DHT22;19986;48.190;16.366;2023-02-28T15:56:43;8.80;98.20
33645;DHT22;19986;48.190;16.366;2023-02-28T15:59:16;8.80;98.20
33645;DHT22;19986;48.190;16.366;2023-02-28T16:01:43;8.80;98.20
33645;DHT22;19986;48.190;16.366;2023-02-28T16:04:18;8.70;98.30
33645;DHT22;19986;48.190;16.366;2023-02-28T16:07:05;8.70;98.30
33645;DHT22;19986;48.190;16.366;2023-02-28T16:09:32;8.70;98.30
33645;DHT22;19986;48.190;16.366;2023-02-28T16:12:02;8.60;98.50
33645;DHT22;19986;48.190;16.366;2023-02-28T16:14:29;8.60;98.50
33645;DHT22;19986;48.190;16.366;2023-02-28T16:17:06;8.50;98.50
33645;DHT22;19986;48.190;16.366;2023-02-28T16:19:37;8.60;98.50
33645;DHT22;19986;48.190;16.366;2023-02-28T16:22:03;8.50;98.50
33645;DHT22;19986;48.190;16.366;2023-02-28T16:24:29;8.40;98.80
33645;DHT22;19986;48.190;16.366;2023-02-28T16:26:56;8.40;98.50
33645;DHT22;19986;48.190;16.366;2023-02-28T16:29:24;8.30;98.30
33645;DHT22;19986;48.190;16.366;2023-02-28T16:31:52;8.30;98.50
33645;DHT22;19986;48.190;16.366;2023-02-28T16:34:19;8.30;98.60
33645;DHT22;19986;48.190;16.366;2023-02-28T16:36:47;8.20;98.60
33645;DHT22;19986;48.190;16.366;2023-02-28T16:39:13;8.20;98.60
33645;DHT22;19986;48.190;16.366;2023-02-28T16:41:43;8.10;98.60
33645;DHT22;19986;48.190;16.366;2023-02-28T16:44:13;8.10;98.70
33645;DHT22;19986;48.190;16.366;2023-02-28T16:46:40;8.10;98.70
33645;DHT22;19986;48.190;16.366;2023-02-28T16:49:11;8.00;98.80
33645;DHT22;19986;48.190;16.366;2023-02-28T16:51:37;8.00;98.90
33645;DHT22;19986;48.190;16.366;2023-02-28T16:54:03;8.00;98.90
33645;DHT22;19986;48.190;16.366;2023-02-28T16:56:29;8.00;98.90
33645;DHT22;19986;48.190;16.366;2023-02-28T16:58:59;8.00;98.90
33645;DHT22;19986;48.190;16.366;2023-02-28T17:01:26;8.00;98.90
33645;DHT22;19986;48.190;16.366;2023-02-28T17:03:53;8.00;98.90
33645;DHT22;19986;48.190;16.366;2023-02-28T17:06:23;8.00;98.90
33645;DHT22;19986;48.190;16.366;2023-02-28T17:08:51;8.00;99.00
33645;DHT22;19986;48.190;16.366;2023-02-28T17:11:18;7.90;99.00
33645;DHT22;19986;48.190;16.366;2023-02-28T17:13:45;7.90;99.00
33645;DHT22;19986;48.190;16.366;2023-02-28T17:16:20;8.00;99.00
33645;DHT22;19986;48.190;16.366;2023-02-28T17:18:50;7.90;99.10
33645;DHT22;19986;48.190;16.366;2023-02-28T17:21:17;7.90;99.00
33645;DHT22;19986;48.190;16.366;2023-02-28T17:23:43;7.90;99.00
33645;DHT22;19986;48.190;16.366;2023-02-28T17:26:13;7.90;99.00
33645;DHT22;19986;48.190;16.366;2023-02-28T17:28:40;7.90;99.10
33645;DHT22;19986;48.190;16.366;2023-02-28T17:31:07;7.80;99.20
33645;DHT22;19986;48.190;16.366;2023-02-28T17:33:33;7.90;99.30
33645;DHT22;19986;48.190;16.366;2023-02-28T17:35:59;7.90;99.20
33645;DHT22;19986;48.190;16.366;2023-02-28T17:38:26;7.90;99.20
33645;DHT22;19986;48.190;16.366;2023-02-28T17:40:52;7.90;99.20
33645;DHT22;19986;48.190;16.366;2023-02-28T17:43:24;8.00;99.20
33645;DHT22;19986;48.190;16.366;2023-02-28T17:45:51;8.00;99.10
33645;DHT22;19986;48.190;16.366;2023-02-28T17:48:17;7.90;99.10
33645;DHT22;19986;48.190;16.366;2023-02-28T17:50:43;7.90;99.20
33645;DHT22;19986;48.190;16.366;2023-02-28T17:53:09;7.90;99.20
33645;DHT22;19986;48.190;16.366;2023-02-28T17:55:35;7.90;99.30
33645;DHT22;19986;48.190;16.366;2023-02-28T17:58:02;7.80;99.30
33645;DHT22;19986;48.190;16.366;2023-02-28T18:00:29;7.90;99.40
33645;DHT22;19986;48.190;16.366;2023-02-28T18:02:55;7.80;99.30
33645;DHT22;19986;48.190;16.366;2023-02-28T18:05:22;7.80;99.40
33645;DHT22;19986;48.190;16.366;2023-02-28T18:07:48;7.80;99.40
33645;DHT22;19986;48.190;16.366;2023-02-28T18:10:19;7.80;99.50
33645;DHT22;19986;48.190;16.366;2023-02-28T18:12:47;7.80;99.60
33645;DHT22;19986;48.190;16.366;2023-02-28T18:15:15;7.80;99.60
33645;DHT22;19986;48.190;16.366;2023-02-28T18:17:41;7.80;99.50
33645;DHT22;19986;48.190;16.366;2023-02-28T18:20:10;7.70;99.40
33645;DHT22;19986;48.190;16.366;2023-02-28T18:22:37;7.60;99.40
33645;DHT22;19986;48.190;16.366;2023-02-28T18:25:05;7.60;99.40
33645;DHT22;19986;48.190;16.366;2023-02-28T18:27:33;7.50;99.30
33645;DHT22;19986;48.190;16.366;2023-02-28T18:30:00;7.40;99.30
33645;DHT22;19986;48.190;16.366;2023-02-28T18:32:28;7.40;99.30
33645;DHT22;19986;48.190;16.366;2023-02-28T18:34:55;7.30;99.30
33645;DHT22;19986;48.190;16.366;2023-02-28T18:37:21;7.30;99.10
33645;DHT22;19986;48.190;16.366;2023-02-28T18:39:47;7.20;99.00
33645;DHT22;19986;48.190;16.366;2023-02-28T18:42:14;7.10;99.00
33645;DHT22;19986;48.190;16.366;2023-02-28T18:44:40;7.10;99.10
33645;DHT22;19986;48.190;16.366;2023-02-28T18:47:07;7.10;99.20
33645;DHT22;19986;48.190;16.366;2023-02-28T18:49:33;7.10;99.20
33645;DHT22;19986;48.190;16.366;2023-02-28T18:52:03;7.00;99.10
33645;DHT22;19986;48.190;16.366;2023-02-28T18:54:30;7.00;99.20
33645;DHT22;19986;48.190;16.366;2023-02-28T18:56:56;7.00;99.60
33645;DHT22;19986;48.190;16.366;2023-02-28T18:59:23;6.90;99.10
33645;DHT22;19986;48.190;16.366;2023-02-28T19:01:49;6.90;99.20
33645;DHT22;19986;48.190;16.366;2023-02-28T19:04:15;6.80;99.30
33645;DHT22;19986;48.190;16.366;2023-02-28T19:06:42;6.80;99.40
33645;DHT22;19986;48.190;16.366;2023-02-28T19:09:10;6.80;99.50
33645;DHT22;19986;48.190;16.366;2023-02-28T19:11:36;6.90;99.50
33645;DHT22;19986;48.190;16.366;2023-02-28T19:14:03;6.80;99.50
33645;DHT22;19986;48.190;16.366;2023-02-28T19:16:29;6.80;99.60
33645;DHT22;19986;48.190;16.366;2023-02-28T19:18:55;6.80;99.60
33645;DHT22;19986;48.190;16.366;2023-02-28T19:21:23;6.80;99.80
33645;DHT22;19986;48.190;16.366;2023-02-28T19:23:49;6.80;99.80
33645;DHT22;19986;48.190;16.366;2023-02-28T19:26:31;6.90;99.70
33645;DHT22;19986;48.190;16.366;2023-02-28T19:28:57;6.90;99.70
33645;DHT22;19986;48.190;16.366;2023-02-28T19:31:24;6.80;99.60
33645;DHT22;19986;48.190;16.366;2023-02-28T19:33:51;6.80;99.70
33645;DHT22;19986;48.190;16.366;2023-02-28T19:36:18;6.80;99.60
33645;DHT22;19986;48.190;16.366;2023-02-28T19:38:44;6.80;99.60
33645;DHT22;19986;48.190;16.366;2023-02-28T19:41:13;6.70;99.70
33645;DHT22;19986;48.190;16.366;2023-02-28T19:43:40;6.70;99.70
33645;DHT22;19986;48.190;16.366;2023-02-28T19:46:07;6.70;99.70
33645;DHT22;19986;48.190;16.366;2023-02-28T19:48:34;6.70;99.70
33645;DHT22;19986;48.190;16.366;2023-02-28T19:51:06;6.70;99.80
33645;DHT22;19986;48.190;16.366;2023-02-28T19:53:35;6.60;99.90
33645;DHT22;19986;48.190;16.366;2023-02-28T19:56:02;6.70;99.80
33645;DHT22;19986;48.190;16.366;2023-02-28T19:58:29;6.60;99.80
33645;DHT22;19986;48.190;16.366;2023-02-28T20:00:57;6.60;99.90
33645;DHT22;19986;48.190;16.366;2023-02-28T20:03:26;6.60;99.90
33645;DHT22;19986;48.190;16.366;2023-02-28T20:06:00;6.60;99.90
33645;DHT22;19986;48.190;16.366;2023-02-28T20:08:28;6.60;99.90
33645;DHT22;19986;48.190;16.366;2023-02-28T20:11:03;6.70;99.90
33645;DHT22;19986;48.190;16.366;2023-02-28T20:13:30;6.60;99.90
33645;DHT22;19986;48.190;16.366;2023-02-28T20:16:05;6.70;99.90
33645;DHT22;19986;48.190;16.366;2023-02-28T20:18:32;6.70;99.90
33645;DHT22;19986;48.190;16.366;2023-02-28T20:20:59;6.60;99.90
33645;DHT22;19986;48.190;16.366;2023-02-28T20:23:27;6.60;99.90
33645;DHT22;19986;48.190;16.366;2023-02-28T20:25:58;6.60;99.90
33645;DHT22;19986;48.190;16.366;2023-02-28T20:28:25;6.50;99.90
33645;DHT22;19986;48.190;16.366;2023-02-28T20:30:51;6.50;99.90
33645;DHT22;19986;48.190;16.366;2023-02-28T20:33:18;6.50;99.90
33645;DHT22;19986;48.190;16.366;2023-02-28T20:35:45;6.50;99.90
33645;DHT22;19986;48.190;16.366;2023-02-28T20:38:11;6.50;99.90
33645;DHT22;19986;48.190;16.366;2023-02-28T20:40:38;6.40;99.90
33645;DHT22;19986;48.190;16.366;2023-02-28T20:43:05;6.40;99.90
33645;DHT22;19986;48.190;16.366;2023-02-28T20:45:31;6.40;99.90
33645;DHT22;19986;48.190;16.366;2023-02-28T20:47:57;6.40;99.90
33645;DHT22;19986;48.190;16.366;2023-02-28T20:50:24;6.40;99.90
33645;DHT22;19986;48.190;16.366;2023-02-28T20:52:50;6.40;99.90
33645;DHT22;19986;48.190;16.366;2023-02-28T20:55:16;6.40;99.90
33645;DHT22;19986;48.190;16.366;2023-02-28T20:57:42;6.30;99.90
